Burbank, CA (91501)

11:21 AM PST on February 09, 2016 (GMT -0800)
Castle Heights | | Change Station
CLOSE
Current Station
Personal Weather Station
Location: Glendale, CA
Elevation: 771 ft
Nearby Weather Stations
Active Advisory: Wind Advisory Active Notice: Record Report, Public Information Statement

Elev 771 ft 34.18 °N, 118.29 °W | Updated 1 second ago

Clear
Clear
82.9 °F
Feels Like 80 °F
N
0.0
Wind Variable Wind from SW
Gusts 1.0 mph

Today
High -- | Low -- °F
--% Chance of Precip.
Yesterday
High -- | Low -- °F
Precip. -- in
Pressure 30.13 in
Visibility 10.0 miles
Clouds Clear
Heat Index 80 °F
Dew Point 34 °F
Humidity 17%
Rainfall 0.00 in
Snow Depth Not available.
6:44 AM 5:30 PM
New Moon, 2% visible
METAR KBUR 091853Z 00000KT 10SM CLR 27/M01 A3017 RMK AO2 SLP203 T02721006
Pressure 30.13 in
Visibility 10.0 miles
Clouds Clear
Heat Index 80 °F
Dew Point 34 °F
Humidity 17%
Rainfall 0.00 in
Snow Depth Not available.
6:44 AM 5:30 PM
New Moon, 2% visible
METAR KBUR 091853Z 00000KT 10SM CLR 27/M01 A3017 RMK AO2 SLP203 T02721006

10-Day Weather Forecast

Almanac

Astronomy

Feb. 09, 2016 Rise Set
Actual Time
Civil Twilight
Nautical Twilight
Astronomical Twilight
Moon
Length of Visible Light
Length of Day
Tomorrow will be .
, % of the Moon is Illuminated

Today's Extremes

State Highs State Lows

Community

WunderPhotos

Upload Photos

1,891,668 photos uploaded!

WunderBlog® & News

Nearby

Air Quality

  Air Quality AQ Index Pollutant
Not available.

Snow Depth

Station Depth Elevation

Earthquake Activity

City Distance Mag. Time & Date
Minimum magnitude displayed is 2.5.

Coastal Water Temperatures

Place Temperature

Stations

Nearby Weather Stations

Station Location Temp. Windchill Dew Point Humidity Wind Precip. Elev Updated Type
                   

Watches & Warnings

Wind Advisory
Issued: 9:17 AM PST Feb. 9, 2016 – National Weather Service

... Wind Advisory remains in effect until 3 PM PST this
afternoon...

* winds and timing... northeast winds 15 to 25 mph with gusts to 35
mph will continue through mid afternoon.

* Impacts... gusty winds will make driving difficult... especially
for drivers of high profile vehicles and near canyons and
valleys.

Precautionary/preparedness actions...

Use extra caution when driving and be prepared for sudden gusty
cross winds.


Kj